sensor_id;sensor_type;location;lat;lon;timestamp;P1;durP1;ratioP1;P2;durP2;ratioP2
70663;SDS011;58237;57.996;56.290;2024-03-23T00:55:28;10.23;;;4.35;;
70663;SDS011;58237;57.996;56.290;2024-03-23T00:57:54;8.38;;;4.22;;
70663;SDS011;58237;57.996;56.290;2024-03-23T01:00:20;9.55;;;4.70;;
70663;SDS011;58237;57.996;56.290;2024-03-23T01:02:46;10.30;;;5.03;;
70663;SDS011;58237;57.996;56.290;2024-03-23T01:05:11;12.45;;;6.50;;
70663;SDS011;58237;57.996;56.290;2024-03-23T01:07:37;9.55;;;4.65;;
70663;SDS011;58237;57.996;56.290;2024-03-23T01:10:02;11.65;;;4.28;;
70663;SDS011;58237;57.996;56.290;2024-03-23T01:12:29;11.38;;;5.97;;
70663;SDS011;58237;57.996;56.290;2024-03-23T01:14:55;9.73;;;4.68;;
70663;SDS011;58237;57.996;56.290;2024-03-23T01:17:20;8.90;;;4.13;;
70663;SDS011;58237;57.996;56.290;2024-03-23T01:19:46;14.23;;;5.57;;
70663;SDS011;58237;57.996;56.290;2024-03-23T01:22:11;10.02;;;4.35;;
70663;SDS011;58237;57.996;56.290;2024-03-23T01:24:37;9.65;;;4.38;;
70663;SDS011;58237;57.996;56.290;2024-03-23T01:27:03;7.72;;;3.70;;
70663;SDS011;58237;57.996;56.290;2024-03-23T01:29:29;9.02;;;4.28;;
70663;SDS011;58237;57.996;56.290;2024-03-23T01:31:55;8.95;;;3.85;;
70663;SDS011;58237;57.996;56.290;2024-03-23T01:34:20;11.00;;;4.50;;
70663;SDS011;58237;57.996;56.290;2024-03-23T01:36:46;9.05;;;4.03;;
70663;SDS011;58237;57.996;56.290;2024-03-23T01:39:12;10.98;;;4.18;;
70663;SDS011;58237;57.996;56.290;2024-03-23T01:41:38;11.05;;;4.68;;
70663;SDS011;58237;57.996;56.290;2024-03-23T01:44:07;9.38;;;3.67;;
70663;SDS011;58237;57.996;56.290;2024-03-23T01:46:33;10.38;;;3.67;;
70663;SDS011;58237;57.996;56.290;2024-03-23T01:48:59;10.70;;;3.88;;
70663;SDS011;58237;57.996;56.290;2024-03-23T01:51:26;8.63;;;3.33;;
70663;SDS011;58237;57.996;56.290;2024-03-23T01:53:52;8.50;;;3.13;;
70663;SDS011;58237;57.996;56.290;2024-03-23T01:56:18;8.75;;;3.53;;
70663;SDS011;58237;57.996;56.290;2024-03-23T01:58:43;7.78;;;3.15;;
70663;SDS011;58237;57.996;56.290;2024-03-23T02:01:10;9.60;;;3.47;;
70663;SDS011;58237;57.996;56.290;2024-03-23T02:03:36;8.32;;;3.17;;
70663;SDS011;58237;57.996;56.290;2024-03-23T02:06:02;8.80;;;3.38;;
70663;SDS011;58237;57.996;56.290;2024-03-23T02:08:28;6.72;;;3.35;;
70663;SDS011;58237;57.996;56.290;2024-03-23T02:10:55;8.20;;;4.20;;
70663;SDS011;58237;57.996;56.290;2024-03-23T02:13:21;8.70;;;3.17;;
70663;SDS011;58237;57.996;56.290;2024-03-23T02:15:47;10.13;;;4.50;;
70663;SDS011;58237;57.996;56.290;2024-03-23T02:18:13;8.88;;;4.45;;
70663;SDS011;58237;57.996;56.290;2024-03-23T02:20:39;7.78;;;4.13;;
70663;SDS011;58237;57.996;56.290;2024-03-23T02:23:05;9.02;;;3.90;;
70663;SDS011;58237;57.996;56.290;2024-03-23T02:25:34;12.07;;;4.43;;
70663;SDS011;58237;57.996;56.290;2024-03-23T02:27:59;9.60;;;4.72;;
70663;SDS011;58237;57.996;56.290;2024-03-23T02:30:25;10.57;;;5.30;;
70663;SDS011;58237;57.996;56.290;2024-03-23T02:32:51;11.52;;;4.38;;
70663;SDS011;58237;57.996;56.290;2024-03-23T02:35:17;9.85;;;4.18;;
70663;SDS011;58237;57.996;56.290;2024-03-23T02:37:42;13.63;;;5.43;;
70663;SDS011;58237;57.996;56.290;2024-03-23T02:40:08;11.57;;;4.45;;
70663;SDS011;58237;57.996;56.290;2024-03-23T02:42:34;8.20;;;3.65;;
70663;SDS011;58237;57.996;56.290;2024-03-23T02:45:00;9.18;;;3.97;;
70663;SDS011;58237;57.996;56.290;2024-03-23T02:47:25;9.20;;;3.50;;
70663;SDS011;58237;57.996;56.290;2024-03-23T02:49:51;8.70;;;4.43;;
70663;SDS011;58237;57.996;56.290;2024-03-23T02:52:17;10.00;;;4.53;;
70663;SDS011;58237;57.996;56.290;2024-03-23T02:54:42;9.25;;;3.97;;
70663;SDS011;58237;57.996;56.290;2024-03-23T02:57:10;7.20;;;3.53;;
70663;SDS011;58237;57.996;56.290;2024-03-23T02:59:35;10.57;;;4.03;;
70663;SDS011;58237;57.996;56.290;2024-03-23T03:02:01;10.82;;;3.92;;
70663;SDS011;58237;57.996;56.290;2024-03-23T03:04:27;13.63;;;4.70;;
70663;SDS011;58237;57.996;56.290;2024-03-23T03:06:53;8.32;;;4.32;;
70663;SDS011;58237;57.996;56.290;2024-03-23T03:09:19;11.60;;;4.53;;
70663;SDS011;58237;57.996;56.290;2024-03-23T03:11:44;13.18;;;4.75;;
70663;SDS011;58237;57.996;56.290;2024-03-23T03:14:10;13.93;;;5.50;;
70663;SDS011;58237;57.996;56.290;2024-03-23T03:16:36;10.13;;;4.70;;
70663;SDS011;58237;57.996;56.290;2024-03-23T03:19:01;10.82;;;4.45;;
70663;SDS011;58237;57.996;56.290;2024-03-23T03:21:27;8.30;;;3.58;;
70663;SDS011;58237;57.996;56.290;2024-03-23T03:23:53;11.57;;;4.35;;
70663;SDS011;58237;57.996;56.290;2024-03-23T03:26:21;14.35;;;4.35;;
70663;SDS011;58237;57.996;56.290;2024-03-23T03:28:47;9.88;;;4.53;;
70663;SDS011;58237;57.996;56.290;2024-03-23T03:31:17;15.98;;;4.28;;
70663;SDS011;58237;57.996;56.290;2024-03-23T03:33:43;8.13;;;3.35;;
70663;SDS011;58237;57.996;56.290;2024-03-23T03:36:10;9.23;;;3.88;;
70663;SDS011;58237;57.996;56.290;2024-03-23T03:38:35;9.57;;;4.10;;
70663;SDS011;58237;57.996;56.290;2024-03-23T03:41:01;12.75;;;4.70;;
70663;SDS011;58237;57.996;56.290;2024-03-23T03:43:27;11.20;;;4.75;;
70663;SDS011;58237;57.996;56.290;2024-03-23T03:45:56;10.88;;;4.72;;
70663;SDS011;58237;57.996;56.290;2024-03-23T03:48:21;7.25;;;3.55;;
70663;SDS011;58237;57.996;56.290;2024-03-23T03:50:47;9.05;;;3.85;;
70663;SDS011;58237;57.996;56.290;2024-03-23T03:53:13;14.35;;;4.10;;
70663;SDS011;58237;57.996;56.290;2024-03-23T03:55:38;7.80;;;3.13;;
70663;SDS011;58237;57.996;56.290;2024-03-23T03:58:04;9.75;;;4.03;;
70663;SDS011;58237;57.996;56.290;2024-03-23T04:00:30;12.63;;;4.38;;
70663;SDS011;58237;57.996;56.290;2024-03-23T04:02:56;7.55;;;3.85;;
70663;SDS011;58237;57.996;56.290;2024-03-23T04:05:21;17.83;;;4.85;;
70663;SDS011;58237;57.996;56.290;2024-03-23T04:07:47;10.70;;;4.53;;
70663;SDS011;58237;57.996;56.290;2024-03-23T04:10:13;9.40;;;3.60;;
70663;SDS011;58237;57.996;56.290;2024-03-23T04:12:39;16.05;;;5.50;;
70663;SDS011;58237;57.996;56.290;2024-03-23T04:15:05;10.60;;;4.80;;
70663;SDS011;58237;57.996;56.290;2024-03-23T04:17:31;9.70;;;4.03;;
70663;SDS011;58237;57.996;56.290;2024-03-23T04:19:58;7.78;;;3.60;;
70663;SDS011;58237;57.996;56.290;2024-03-23T04:22:24;10.07;;;3.72;;
70663;SDS011;58237;57.996;56.290;2024-03-23T04:24:54;9.15;;;4.38;;
70663;SDS011;58237;57.996;56.290;2024-03-23T04:27:20;9.95;;;4.43;;
70663;SDS011;58237;57.996;56.290;2024-03-23T04:29:49;10.05;;;4.10;;
70663;SDS011;58237;57.996;56.290;2024-03-23T04:32:14;8.27;;;3.55;;
70663;SDS011;58237;57.996;56.290;2024-03-23T04:34:40;6.85;;;3.20;;
70663;SDS011;58237;57.996;56.290;2024-03-23T04:37:06;10.82;;;4.55;;
70663;SDS011;58237;57.996;56.290;2024-03-23T04:39:33;8.40;;;3.65;;
70663;SDS011;58237;57.996;56.290;2024-03-23T04:41:58;12.52;;;4.57;;
70663;SDS011;58237;57.996;56.290;2024-03-23T04:44:24;12.15;;;4.28;;
70663;SDS011;58237;57.996;56.290;2024-03-23T04:46:50;11.27;;;4.28;;
70663;SDS011;58237;57.996;56.290;2024-03-23T04:49:15;11.13;;;4.97;;
70663;SDS011;58237;57.996;56.290;2024-03-23T04:51:41;9.30;;;4.30;;
70663;SDS011;58237;57.996;56.290;2024-03-23T04:54:11;10.85;;;4.32;;
70663;SDS011;58237;57.996;56.290;2024-03-23T04:56:37;11.20;;;4.70;;
70663;SDS011;58237;57.996;56.290;2024-03-23T04:59:03;16.10;;;4.75;;
70663;SDS011;58237;57.996;56.290;2024-03-23T05:01:32;11.50;;;4.05;;
70663;SDS011;58237;57.996;56.290;2024-03-23T05:03:58;11.20;;;4.25;;
70663;SDS011;58237;57.996;56.290;2024-03-23T05:06:24;15.32;;;4.70;;
70663;SDS011;58237;57.996;56.290;2024-03-23T05:08:50;14.55;;;5.75;;
70663;SDS011;58237;57.996;56.290;2024-03-23T05:11:16;11.63;;;4.70;;
70663;SDS011;58237;57.996;56.290;2024-03-23T05:13:42;10.77;;;4.28;;
70663;SDS011;58237;57.996;56.290;2024-03-23T05:16:08;11.52;;;4.95;;
70663;SDS011;58237;57.996;56.290;2024-03-23T05:18:34;11.07;;;4.80;;
70663;SDS011;58237;57.996;56.290;2024-03-23T05:21:00;13.20;;;4.90;;
70663;SDS011;58237;57.996;56.290;2024-03-23T05:23:26;10.48;;;4.72;;
70663;SDS011;58237;57.996;56.290;2024-03-23T05:25:52;14.07;;;4.97;;
70663;SDS011;58237;57.996;56.290;2024-03-23T05:28:18;12.15;;;5.38;;
70663;SDS011;58237;57.996;56.290;2024-03-23T05:30:49;21.20;;;5.93;;
70663;SDS011;58237;57.996;56.290;2024-03-23T05:33:15;21.48;;;5.65;;
70663;SDS011;58237;57.996;56.290;2024-03-23T05:35:40;15.02;;;5.80;;
70663;SDS011;58237;57.996;56.290;2024-03-23T05:38:06;13.63;;;5.80;;
70663;SDS011;58237;57.996;56.290;2024-03-23T05:40:32;10.50;;;5.18;;
70663;SDS011;58237;57.996;56.290;2024-03-23T05:42:57;12.60;;;5.85;;
70663;SDS011;58237;57.996;56.290;2024-03-23T05:45:23;10.90;;;5.82;;
70663;SDS011;58237;57.996;56.290;2024-03-23T05:47:48;15.98;;;5.72;;
70663;SDS011;58237;57.996;56.290;2024-03-23T05:50:14;12.32;;;5.07;;
70663;SDS011;58237;57.996;56.290;2024-03-23T05:52:40;17.58;;;6.07;;
70663;SDS011;58237;57.996;56.290;2024-03-23T05:55:07;11.68;;;4.47;;
70663;SDS011;58237;57.996;56.290;2024-03-23T05:57:33;9.85;;;4.20;;
70663;SDS011;58237;57.996;56.290;2024-03-23T05:59:59;10.48;;;3.80;;
70663;SDS011;58237;57.996;56.290;2024-03-23T06:02:24;10.23;;;3.67;;
70663;SDS011;58237;57.996;56.290;2024-03-23T06:04:50;8.02;;;3.47;;
70663;SDS011;58237;57.996;56.290;2024-03-23T06:07:15;6.72;;;3.00;;
70663;SDS011;58237;57.996;56.290;2024-03-23T06:09:41;10.13;;;4.35;;
70663;SDS011;58237;57.996;56.290;2024-03-23T06:12:07;9.65;;;4.20;;
70663;SDS011;58237;57.996;56.290;2024-03-23T06:14:34;8.82;;;3.90;;
70663;SDS011;58237;57.996;56.290;2024-03-23T06:16:59;12.57;;;4.72;;
70663;SDS011;58237;57.996;56.290;2024-03-23T06:19:26;12.80;;;4.32;;
70663;SDS011;58237;57.996;56.290;2024-03-23T06:21:53;9.63;;;4.10;;
70663;SDS011;58237;57.996;56.290;2024-03-23T06:24:20;6.90;;;3.45;;
70663;SDS011;58237;57.996;56.290;2024-03-23T06:26:46;8.95;;;3.78;;
70663;SDS011;58237;57.996;56.290;2024-03-23T06:29:11;10.75;;;4.40;;
70663;SDS011;58237;57.996;56.290;2024-03-23T06:31:37;9.05;;;3.90;;
70663;SDS011;58237;57.996;56.290;2024-03-23T06:34:02;9.65;;;3.60;;
70663;SDS011;58237;57.996;56.290;2024-03-23T06:36:28;9.63;;;4.05;;
70663;SDS011;58237;57.996;56.290;2024-03-23T06:38:55;18.40;;;6.38;;
70663;SDS011;58237;57.996;56.290;2024-03-23T06:41:21;9.65;;;4.32;;
70663;SDS011;58237;57.996;56.290;2024-03-23T06:43:47;9.77;;;4.13;;
70663;SDS011;58237;57.996;56.290;2024-03-23T06:46:13;11.95;;;4.30;;
70663;SDS011;58237;57.996;56.290;2024-03-23T06:48:38;9.80;;;3.90;;
70663;SDS011;58237;57.996;56.290;2024-03-23T06:51:04;10.05;;;4.35;;
70663;SDS011;58237;57.996;56.290;2024-03-23T06:53:30;12.98;;;4.55;;
70663;SDS011;58237;57.996;56.290;2024-03-23T06:55:55;10.15;;;3.83;;
70663;SDS011;58237;57.996;56.290;2024-03-23T06:58:21;11.40;;;3.97;;
70663;SDS011;58237;57.996;56.290;2024-03-23T07:00:48;14.00;;;4.43;;
70663;SDS011;58237;57.996;56.290;2024-03-23T07:03:13;7.03;;;3.50;;
70663;SDS011;58237;57.996;56.290;2024-03-23T07:05:39;11.13;;;3.63;;
70663;SDS011;58237;57.996;56.290;2024-03-23T07:08:05;8.75;;;3.20;;
70663;SDS011;58237;57.996;56.290;2024-03-23T07:10:30;12.15;;;5.38;;
70663;SDS011;58237;57.996;56.290;2024-03-23T07:12:56;11.02;;;4.70;;
70663;SDS011;58237;57.996;56.290;2024-03-23T07:15:22;8.95;;;3.28;;
70663;SDS011;58237;57.996;56.290;2024-03-23T07:17:47;8.70;;;3.80;;
70663;SDS011;58237;57.996;56.290;2024-03-23T07:20:13;11.40;;;3.85;;
70663;SDS011;58237;57.996;56.290;2024-03-23T07:22:39;8.30;;;4.13;;
70663;SDS011;58237;57.996;56.290;2024-03-23T07:25:05;6.97;;;3.63;;
70663;SDS011;58237;57.996;56.290;2024-03-23T07:27:31;8.55;;;3.33;;
70663;SDS011;58237;57.996;56.290;2024-03-23T07:29:57;9.70;;;3.38;;
70663;SDS011;58237;57.996;56.290;2024-03-23T07:32:23;6.78;;;2.97;;
70663;SDS011;58237;57.996;56.290;2024-03-23T07:34:48;6.53;;;2.78;;
70663;SDS011;58237;57.996;56.290;2024-03-23T07:37:14;10.68;;;3.42;;
70663;SDS011;58237;57.996;56.290;2024-03-23T07:39:41;7.50;;;2.80;;
70663;SDS011;58237;57.996;56.290;2024-03-23T07:42:06;7.13;;;3.35;;
70663;SDS011;58237;57.996;56.290;2024-03-23T07:44:32;9.40;;;3.65;;
70663;SDS011;58237;57.996;56.290;2024-03-23T07:46:58;8.90;;;3.70;;
70663;SDS011;58237;57.996;56.290;2024-03-23T07:49:24;10.45;;;3.63;;
70663;SDS011;58237;57.996;56.290;2024-03-23T07:51:50;12.05;;;4.28;;
70663;SDS011;58237;57.996;56.290;2024-03-23T07:54:15;17.00;;;3.97;;
70663;SDS011;58237;57.996;56.290;2024-03-23T07:56:41;13.93;;;5.25;;
70663;SDS011;58237;57.996;56.290;2024-03-23T07:59:06;10.05;;;4.00;;
70663;SDS011;58237;57.996;56.290;2024-03-23T08:01:32;12.60;;;4.93;;
70663;SDS011;58237;57.996;56.290;2024-03-23T08:03:58;11.63;;;4.57;;
70663;SDS011;58237;57.996;56.290;2024-03-23T08:06:23;10.10;;;3.90;;
70663;SDS011;58237;57.996;56.290;2024-03-23T08:08:54;10.60;;;4.20;;
70663;SDS011;58237;57.996;56.290;2024-03-23T08:11:28;6.93;;;3.60;;
70663;SDS011;58237;57.996;56.290;2024-03-23T08:13:55;8.43;;;4.10;;
70663;SDS011;58237;57.996;56.290;2024-03-23T08:16:20;9.20;;;3.55;;
70663;SDS011;58237;57.996;56.290;2024-03-23T08:18:46;8.23;;;3.30;;
70663;SDS011;58237;57.996;56.290;2024-03-23T08:21:12;8.52;;;3.25;;
70663;SDS011;58237;57.996;56.290;2024-03-23T08:23:38;11.63;;;3.50;;
70663;SDS011;58237;57.996;56.290;2024-03-23T08:26:07;9.32;;;3.42;;
70663;SDS011;58237;57.996;56.290;2024-03-23T08:28:34;10.13;;;3.25;;
70663;SDS011;58237;57.996;56.290;2024-03-23T08:31:01;8.07;;;2.72;;
70663;SDS011;58237;57.996;56.290;2024-03-23T08:33:26;9.90;;;3.90;;
70663;SDS011;58237;57.996;56.290;2024-03-23T08:36:02;7.95;;;3.17;;
70663;SDS011;58237;57.996;56.290;2024-03-23T08:38:28;6.05;;;2.83;;
70663;SDS011;58237;57.996;56.290;2024-03-23T08:43:23;10.43;;;2.88;;
70663;SDS011;58237;57.996;56.290;2024-03-23T08:45:49;10.25;;;3.97;;
70663;SDS011;58237;57.996;56.290;2024-03-23T08:48:14;9.00;;;3.53;;
70663;SDS011;58237;57.996;56.290;2024-03-23T08:50:40;6.65;;;2.58;;
70663;SDS011;58237;57.996;56.290;2024-03-23T08:53:06;10.20;;;3.65;;
70663;SDS011;58237;57.996;56.290;2024-03-23T08:55:31;8.15;;;3.42;;
70663;SDS011;58237;57.996;56.290;2024-03-23T08:57:57;12.20;;;4.10;;
70663;SDS011;58237;57.996;56.290;2024-03-23T09:00:22;8.75;;;3.00;;
70663;SDS011;58237;57.996;56.290;2024-03-23T09:02:48;10.20;;;4.40;;
70663;SDS011;58237;57.996;56.290;2024-03-23T09:05:14;7.00;;;3.22;;
70663;SDS011;58237;57.996;56.290;2024-03-23T09:07:39;8.10;;;2.97;;
70663;SDS011;58237;57.996;56.290;2024-03-23T09:10:05;9.02;;;2.70;;
70663;SDS011;58237;57.996;56.290;2024-03-23T09:12:31;11.75;;;3.97;;
70663;SDS011;58237;57.996;56.290;2024-03-23T09:14:56;8.68;;;3.30;;
70663;SDS011;58237;57.996;56.290;2024-03-23T09:17:22;9.23;;;2.65;;
70663;SDS011;58237;57.996;56.290;2024-03-23T09:19:48;8.20;;;2.97;;
70663;SDS011;58237;57.996;56.290;2024-03-23T09:22:13;7.07;;;2.55;;
70663;SDS011;58237;57.996;56.290;2024-03-23T09:24:40;8.70;;;2.90;;
70663;SDS011;58237;57.996;56.290;2024-03-23T09:27:05;7.97;;;3.67;;
70663;SDS011;58237;57.996;56.290;2024-03-23T09:29:31;10.88;;;4.20;;
70663;SDS011;58237;57.996;56.290;2024-03-23T09:31:57;8.43;;;4.10;;
70663;SDS011;58237;57.996;56.290;2024-03-23T09:34:22;10.68;;;4.32;;
70663;SDS011;58237;57.996;56.290;2024-03-23T09:36:51;8.43;;;4.07;;
70663;SDS011;58237;57.996;56.290;2024-03-23T09:39:16;9.20;;;3.53;;
70663;SDS011;58237;57.996;56.290;2024-03-23T09:41:42;6.90;;;2.78;;
70663;SDS011;58237;57.996;56.290;2024-03-23T09:44:08;7.93;;;2.75;;
70663;SDS011;58237;57.996;56.290;2024-03-23T09:46:33;9.38;;;2.63;;
70663;SDS011;58237;57.996;56.290;2024-03-23T09:49:02;11.18;;;3.40;;
70663;SDS011;58237;57.996;56.290;2024-03-23T09:51:31;7.07;;;2.80;;
70663;SDS011;58237;57.996;56.290;2024-03-23T09:53:57;8.15;;;3.05;;
70663;SDS011;58237;57.996;56.290;2024-03-23T09:56:23;5.47;;;2.50;;
70663;SDS011;58237;57.996;56.290;2024-03-23T09:58:49;6.75;;;3.63;;
70663;SDS011;58237;57.996;56.290;2024-03-23T10:01:14;7.25;;;2.55;;
70663;SDS011;58237;57.996;56.290;2024-03-23T10:03:44;7.43;;;3.15;;
70663;SDS011;58237;57.996;56.290;2024-03-23T10:06:10;7.80;;;3.30;;
70663;SDS011;58237;57.996;56.290;2024-03-23T10:08:35;9.10;;;2.88;;
70663;SDS011;58237;57.996;56.290;2024-03-23T10:11:14;7.97;;;3.38;;
70663;SDS011;58237;57.996;56.290;2024-03-23T10:13:44;7.88;;;3.35;;
70663;SDS011;58237;57.996;56.290;2024-03-23T10:16:11;7.93;;;3.08;;
70663;SDS011;58237;57.996;56.290;2024-03-23T10:18:40;6.18;;;3.05;;
70663;SDS011;58237;57.996;56.290;2024-03-23T10:21:06;7.47;;;3.15;;
70663;SDS011;58237;57.996;56.290;2024-03-23T10:23:34;6.28;;;2.72;;
70663;SDS011;58237;57.996;56.290;2024-03-23T10:26:12;11.35;;;3.78;;
70663;SDS011;58237;57.996;56.290;2024-03-23T10:28:50;13.77;;;4.32;;
70663;SDS011;58237;57.996;56.290;2024-03-23T10:31:15;6.13;;;3.08;;
70663;SDS011;58237;57.996;56.290;2024-03-23T10:33:47;7.47;;;2.95;;
70663;SDS011;58237;57.996;56.290;2024-03-23T10:36:13;8.23;;;3.25;;
70663;SDS011;58237;57.996;56.290;2024-03-23T10:38:40;8.93;;;3.20;;
70663;SDS011;58237;57.996;56.290;2024-03-23T10:41:06;6.75;;;3.08;;
70663;SDS011;58237;57.996;56.290;2024-03-23T10:43:32;5.97;;;2.72;;
70663;SDS011;58237;57.996;56.290;2024-03-23T10:45:58;8.57;;;3.13;;
70663;SDS011;58237;57.996;56.290;2024-03-23T10:48:24;8.85;;;3.50;;
70663;SDS011;58237;57.996;56.290;2024-03-23T10:50:49;10.55;;;4.43;;
70663;SDS011;58237;57.996;56.290;2024-03-23T10:53:15;8.30;;;3.55;;
70663;SDS011;58237;57.996;56.290;2024-03-23T10:55:42;8.82;;;3.83;;
70663;SDS011;58237;57.996;56.290;2024-03-23T10:58:09;11.32;;;3.85;;
70663;SDS011;58237;57.996;56.290;2024-03-23T11:00:38;8.65;;;3.80;;
70663;SDS011;58237;57.996;56.290;2024-03-23T11:03:38;7.45;;;2.95;;
70663;SDS011;58237;57.996;56.290;2024-03-23T11:05:56;11.27;;;4.65;;
70663;SDS011;58237;57.996;56.290;2024-03-23T11:08:31;9.05;;;3.25;;
70663;SDS011;58237;57.996;56.290;2024-03-23T11:13:42;8.77;;;3.15;;
70663;SDS011;58237;57.996;56.290;2024-03-23T11:16:14;10.38;;;4.32;;
70663;SDS011;58237;57.996;56.290;2024-03-23T11:18:40;11.10;;;3.50;;
70663;SDS011;58237;57.996;56.290;2024-03-23T11:21:08;9.07;;;3.75;;
70663;SDS011;58237;57.996;56.290;2024-03-23T11:23:34;8.30;;;3.15;;
70663;SDS011;58237;57.996;56.290;2024-03-23T11:25:59;10.57;;;4.10;;
70663;SDS011;58237;57.996;56.290;2024-03-23T11:28:25;10.20;;;4.07;;
70663;SDS011;58237;57.996;56.290;2024-03-23T11:30:51;8.05;;;3.60;;
70663;SDS011;58237;57.996;56.290;2024-03-23T11:33:16;8.85;;;3.83;;
70663;SDS011;58237;57.996;56.290;2024-03-23T11:35:44;9.90;;;3.88;;
70663;SDS011;58237;57.996;56.290;2024-03-23T11:38:16;8.63;;;3.47;;
70663;SDS011;58237;57.996;56.290;2024-03-23T11:40:46;10.45;;;3.40;;
70663;SDS011;58237;57.996;56.290;2024-03-23T11:43:13;11.18;;;3.70;;
70663;SDS011;58237;57.996;56.290;2024-03-23T11:45:40;6.70;;;3.05;;
70663;SDS011;58237;57.996;56.290;2024-03-23T11:48:10;9.68;;;3.38;;
70663;SDS011;58237;57.996;56.290;2024-03-23T11:50:37;8.20;;;3.42;;
70663;SDS011;58237;57.996;56.290;2024-03-23T11:53:07;7.90;;;3.30;;
70663;SDS011;58237;57.996;56.290;2024-03-23T11:55:39;7.45;;;3.10;;
70663;SDS011;58237;57.996;56.290;2024-03-23T11:58:05;7.95;;;2.80;;
70663;SDS011;58237;57.996;56.290;2024-03-23T12:00:31;7.65;;;2.65;;
70663;SDS011;58237;57.996;56.290;2024-03-23T12:03:01;5.78;;;2.85;;
70663;SDS011;58237;57.996;56.290;2024-03-23T12:05:27;6.85;;;2.88;;
70663;SDS011;58237;57.996;56.290;2024-03-23T12:07:53;6.25;;;2.88;;
70663;SDS011;58237;57.996;56.290;2024-03-23T12:10:21;6.95;;;2.58;;
70663;SDS011;58237;57.996;56.290;2024-03-23T12:12:59;8.68;;;2.80;;
70663;SDS011;58237;57.996;56.290;2024-03-23T12:15:24;5.78;;;2.53;;
70663;SDS011;58237;57.996;56.290;2024-03-23T12:17:50;6.80;;;2.60;;
70663;SDS011;58237;57.996;56.290;2024-03-23T12:20:16;7.72;;;3.30;;
70663;SDS011;58237;57.996;56.290;2024-03-23T12:22:41;9.60;;;3.35;;
70663;SDS011;58237;57.996;56.290;2024-03-23T12:25:07;13.15;;;3.78;;
70663;SDS011;58237;57.996;56.290;2024-03-23T12:27:32;11.23;;;3.25;;
70663;SDS011;58237;57.996;56.290;2024-03-23T12:29:59;7.82;;;3.38;;
70663;SDS011;58237;57.996;56.290;2024-03-23T12:32:28;8.20;;;2.83;;
70663;SDS011;58237;57.996;56.290;2024-03-23T12:34:53;12.35;;;3.10;;
70663;SDS011;58237;57.996;56.290;2024-03-23T12:37:19;7.07;;;2.70;;
70663;SDS011;58237;57.996;56.290;2024-03-23T12:39:44;8.23;;;3.22;;
70663;SDS011;58237;57.996;56.290;2024-03-23T12:42:11;6.70;;;2.58;;
70663;SDS011;58237;57.996;56.290;2024-03-23T12:44:37;8.48;;;2.75;;
70663;SDS011;58237;57.996;56.290;2024-03-23T12:47:02;6.28;;;2.45;;
70663;SDS011;58237;57.996;56.290;2024-03-23T12:49:28;7.03;;;2.60;;
70663;SDS011;58237;57.996;56.290;2024-03-23T12:51:55;7.82;;;2.60;;
70663;SDS011;58237;57.996;56.290;2024-03-23T12:54:21;9.73;;;3.55;;
70663;SDS011;58237;57.996;56.290;2024-03-23T12:56:47;11.32;;;3.70;;
70663;SDS011;58237;57.996;56.290;2024-03-23T12:59:13;9.48;;;3.03;;
70663;SDS011;58237;57.996;56.290;2024-03-23T13:01:39;5.60;;;2.30;;
70663;SDS011;58237;57.996;56.290;2024-03-23T13:04:05;7.18;;;2.90;;
70663;SDS011;58237;57.996;56.290;2024-03-23T13:06:31;8.40;;;2.83;;
70663;SDS011;58237;57.996;56.290;2024-03-23T13:09:01;13.45;;;3.47;;
70663;SDS011;58237;57.996;56.290;2024-03-23T13:11:27;7.68;;;3.03;;
70663;SDS011;58237;57.996;56.290;2024-03-23T13:13:52;6.45;;;2.90;;
70663;SDS011;58237;57.996;56.290;2024-03-23T13:16:18;6.88;;;2.92;;
70663;SDS011;58237;57.996;56.290;2024-03-23T13:18:44;8.55;;;2.75;;
70663;SDS011;58237;57.996;56.290;2024-03-23T13:21:09;7.78;;;2.65;;
70663;SDS011;58237;57.996;56.290;2024-03-23T13:23:35;5.05;;;1.98;;
70663;SDS011;58237;57.996;56.290;2024-03-23T13:26:01;7.50;;;2.58;;
70663;SDS011;58237;57.996;56.290;2024-03-23T13:28:28;8.07;;;2.70;;
70663;SDS011;58237;57.996;56.290;2024-03-23T13:30:54;9.38;;;2.25;;
70663;SDS011;58237;57.996;56.290;2024-03-23T13:33:20;7.10;;;2.70;;
70663;SDS011;58237;57.996;56.290;2024-03-23T13:35:49;6.63;;;2.20;;
70663;SDS011;58237;57.996;56.290;2024-03-23T13:38:15;7.88;;;2.67;;
70663;SDS011;58237;57.996;56.290;2024-03-23T13:40:48;6.90;;;2.10;;
70663;SDS011;58237;57.996;56.290;2024-03-23T13:43:14;6.15;;;2.33;;
70663;SDS011;58237;57.996;56.290;2024-03-23T13:45:40;6.65;;;2.35;;
70663;SDS011;58237;57.996;56.290;2024-03-23T13:48:05;6.53;;;2.08;;
70663;SDS011;58237;57.996;56.290;2024-03-23T13:50:31;7.15;;;2.75;;
70663;SDS011;58237;57.996;56.290;2024-03-23T13:52:57;7.35;;;2.25;;
70663;SDS011;58237;57.996;56.290;2024-03-23T13:55:22;8.57;;;2.80;;
70663;SDS011;58237;57.996;56.290;2024-03-23T13:57:48;5.05;;;2.17;;
70663;SDS011;58237;57.996;56.290;2024-03-23T14:00:16;8.48;;;2.35;;
70663;SDS011;58237;57.996;56.290;2024-03-23T14:02:43;6.65;;;2.50;;
70663;SDS011;58237;57.996;56.290;2024-03-23T14:05:09;6.18;;;2.33;;
70663;SDS011;58237;57.996;56.290;2024-03-23T14:07:36;6.05;;;2.30;;
70663;SDS011;58237;57.996;56.290;2024-03-23T14:10:05;6.68;;;2.45;;
70663;SDS011;58237;57.996;56.290;2024-03-23T14:12:36;8.88;;;3.30;;
70663;SDS011;58237;57.996;56.290;2024-03-23T14:15:05;6.20;;;2.30;;
70663;SDS011;58237;57.996;56.290;2024-03-23T14:17:30;8.35;;;2.88;;
70663;SDS011;58237;57.996;56.290;2024-03-23T14:19:56;5.93;;;2.60;;
70663;SDS011;58237;57.996;56.290;2024-03-23T14:22:26;7.43;;;2.70;;
70663;SDS011;58237;57.996;56.290;2024-03-23T14:24:52;5.80;;;2.47;;
70663;SDS011;58237;57.996;56.290;2024-03-23T14:27:18;6.30;;;2.70;;
70663;SDS011;58237;57.996;56.290;2024-03-23T14:29:47;7.65;;;3.33;;
70663;SDS011;58237;57.996;56.290;2024-03-23T14:32:13;9.38;;;3.05;;
70663;SDS011;58237;57.996;56.290;2024-03-23T14:34:38;7.57;;;2.80;;
70663;SDS011;58237;57.996;56.290;2024-03-23T14:37:04;6.85;;;2.25;;
70663;SDS011;58237;57.996;56.290;2024-03-23T14:39:31;8.30;;;3.00;;
70663;SDS011;58237;57.996;56.290;2024-03-23T14:42:02;9.95;;;3.53;;
70663;SDS011;58237;57.996;56.290;2024-03-23T14:44:28;6.90;;;2.58;;
70663;SDS011;58237;57.996;56.290;2024-03-23T14:46:54;7.43;;;2.63;;
70663;SDS011;58237;57.996;56.290;2024-03-23T14:49:20;6.75;;;2.50;;
70663;SDS011;58237;57.996;56.290;2024-03-23T14:51:46;7.32;;;2.38;;
70663;SDS011;58237;57.996;56.290;2024-03-23T14:54:12;6.40;;;2.60;;
70663;SDS011;58237;57.996;56.290;2024-03-23T14:56:38;8.00;;;2.50;;
70663;SDS011;58237;57.996;56.290;2024-03-23T14:59:04;10.00;;;2.83;;
70663;SDS011;58237;57.996;56.290;2024-03-23T15:01:33;6.93;;;2.78;;
70663;SDS011;58237;57.996;56.290;2024-03-23T15:03:59;7.57;;;2.60;;
70663;SDS011;58237;57.996;56.290;2024-03-23T15:06:25;6.18;;;2.45;;
70663;SDS011;58237;57.996;56.290;2024-03-23T15:08:50;8.35;;;2.50;;
70663;SDS011;58237;57.996;56.290;2024-03-23T15:11:16;7.22;;;3.00;;
70663;SDS011;58237;57.996;56.290;2024-03-23T15:13:44;8.15;;;2.58;;
70663;SDS011;58237;57.996;56.290;2024-03-23T15:16:10;6.50;;;2.45;;
70663;SDS011;58237;57.996;56.290;2024-03-23T15:18:36;6.85;;;2.85;;
70663;SDS011;58237;57.996;56.290;2024-03-23T15:21:02;6.20;;;2.85;;
70663;SDS011;58237;57.996;56.290;2024-03-23T15:23:30;7.45;;;2.83;;
70663;SDS011;58237;57.996;56.290;2024-03-23T15:25:59;7.75;;;2.70;;